sensor_id;sensor_type;location;lat;lon;timestamp;P1;durP1;ratioP1;P2;durP2;ratioP2
72273;SDS011;60208;48.692;8.948;2023-08-31T00:02:24;4.43;;;2.55;;
72273;SDS011;60208;48.692;8.948;2023-08-31T00:04:54;6.13;;;2.60;;
72273;SDS011;60208;48.692;8.948;2023-08-31T00:07:20;2.42;;;2.20;;
72273;SDS011;60208;48.692;8.948;2023-08-31T00:09:46;3.92;;;2.20;;
72273;SDS011;60208;48.692;8.948;2023-08-31T00:12:12;4.13;;;2.10;;
72273;SDS011;60208;48.692;8.948;2023-08-31T00:14:38;4.60;;;2.38;;
72273;SDS011;60208;48.692;8.948;2023-08-31T00:17:04;3.28;;;2.40;;
72273;SDS011;60208;48.692;8.948;2023-08-31T00:19:30;3.25;;;2.20;;
72273;SDS011;60208;48.692;8.948;2023-08-31T00:21:55;3.58;;;2.13;;
72273;SDS011;60208;48.692;8.948;2023-08-31T00:24:21;2.58;;;2.28;;
72273;SDS011;60208;48.692;8.948;2023-08-31T00:26:48;5.35;;;2.45;;
72273;SDS011;60208;48.692;8.948;2023-08-31T00:29:16;4.05;;;2.38;;
72273;SDS011;60208;48.692;8.948;2023-08-31T00:31:41;3.10;;;2.40;;
72273;SDS011;60208;48.692;8.948;2023-08-31T00:34:09;3.88;;;2.50;;
72273;SDS011;60208;48.692;8.948;2023-08-31T00:36:36;6.82;;;2.85;;
72273;SDS011;60208;48.692;8.948;2023-08-31T00:39:07;5.85;;;2.40;;
72273;SDS011;60208;48.692;8.948;2023-08-31T00:41:36;3.72;;;2.45;;
72273;SDS011;60208;48.692;8.948;2023-08-31T00:44:01;5.82;;;2.38;;
72273;SDS011;60208;48.692;8.948;2023-08-31T00:46:29;4.22;;;2.55;;
72273;SDS011;60208;48.692;8.948;2023-08-31T00:48:56;3.55;;;2.50;;
72273;SDS011;60208;48.692;8.948;2023-08-31T00:51:22;3.33;;;2.50;;
72273;SDS011;60208;48.692;8.948;2023-08-31T00:53:48;4.68;;;2.80;;
72273;SDS011;60208;48.692;8.948;2023-08-31T00:56:16;4.07;;;2.88;;
72273;SDS011;60208;48.692;8.948;2023-08-31T00:58:43;3.60;;;2.88;;
72273;SDS011;60208;48.692;8.948;2023-08-31T01:14:32;3.70;;;2.67;;
72273;SDS011;60208;48.692;8.948;2023-08-31T01:16:59;5.72;;;2.80;;
72273;SDS011;60208;48.692;8.948;2023-08-31T01:21:57;3.33;;;2.88;;
72273;SDS011;60208;48.692;8.948;2023-08-31T01:24:25;3.33;;;2.47;;
72273;SDS011;60208;48.692;8.948;2023-08-31T01:26:51;4.38;;;2.72;;
72273;SDS011;60208;48.692;8.948;2023-08-31T01:29:17;3.92;;;2.53;;
72273;SDS011;60208;48.692;8.948;2023-08-31T01:31:43;5.05;;;3.03;;
72273;SDS011;60208;48.692;8.948;2023-08-31T01:34:10;6.75;;;2.72;;
72273;SDS011;60208;48.692;8.948;2023-08-31T01:36:36;3.85;;;2.42;;
72273;SDS011;60208;48.692;8.948;2023-08-31T01:39:12;3.72;;;2.53;;
72273;SDS011;60208;48.692;8.948;2023-08-31T01:41:40;5.07;;;2.90;;
72273;SDS011;60208;48.692;8.948;2023-08-31T01:44:09;4.05;;;2.65;;
72273;SDS011;60208;48.692;8.948;2023-08-31T01:46:39;5.35;;;2.80;;
72273;SDS011;60208;48.692;8.948;2023-08-31T01:49:05;4.30;;;2.40;;
72273;SDS011;60208;48.692;8.948;2023-08-31T01:51:30;4.90;;;2.70;;
72273;SDS011;60208;48.692;8.948;2023-08-31T01:53:57;8.00;;;2.75;;
72273;SDS011;60208;48.692;8.948;2023-08-31T01:56:24;3.60;;;2.90;;
72273;SDS011;60208;48.692;8.948;2023-08-31T01:58:49;4.53;;;3.10;;
72273;SDS011;60208;48.692;8.948;2023-08-31T02:01:14;4.53;;;2.90;;
72273;SDS011;60208;48.692;8.948;2023-08-31T02:03:40;3.28;;;2.80;;
72273;SDS011;60208;48.692;8.948;2023-08-31T02:06:05;5.55;;;2.75;;
72273;SDS011;60208;48.692;8.948;2023-08-31T02:08:32;4.57;;;2.90;;
72273;SDS011;60208;48.692;8.948;2023-08-31T02:10:57;3.50;;;2.67;;
72273;SDS011;60208;48.692;8.948;2023-08-31T02:13:22;6.70;;;2.80;;
72273;SDS011;60208;48.692;8.948;2023-08-31T02:15:51;3.70;;;2.58;;
72273;SDS011;60208;48.692;8.948;2023-08-31T02:18:17;3.47;;;2.75;;
72273;SDS011;60208;48.692;8.948;2023-08-31T02:20:43;4.05;;;2.53;;
72273;SDS011;60208;48.692;8.948;2023-08-31T02:23:08;5.32;;;3.13;;
72273;SDS011;60208;48.692;8.948;2023-08-31T02:25:34;3.80;;;2.75;;
72273;SDS011;60208;48.692;8.948;2023-08-31T02:28:00;3.55;;;2.50;;
72273;SDS011;60208;48.692;8.948;2023-08-31T02:30:26;3.30;;;2.80;;
72273;SDS011;60208;48.692;8.948;2023-08-31T02:32:53;5.65;;;3.10;;
72273;SDS011;60208;48.692;8.948;2023-08-31T02:35:19;3.88;;;2.70;;
72273;SDS011;60208;48.692;8.948;2023-08-31T02:37:46;2.95;;;2.58;;
72273;SDS011;60208;48.692;8.948;2023-08-31T02:40:11;3.50;;;2.70;;
72273;SDS011;60208;48.692;8.948;2023-08-31T02:42:37;3.90;;;2.78;;
72273;SDS011;60208;48.692;8.948;2023-08-31T02:45:03;4.60;;;3.00;;
72273;SDS011;60208;48.692;8.948;2023-08-31T02:47:29;4.45;;;2.88;;
72273;SDS011;60208;48.692;8.948;2023-08-31T02:49:55;4.90;;;2.90;;
72273;SDS011;60208;48.692;8.948;2023-08-31T02:52:21;3.88;;;2.78;;
72273;SDS011;60208;48.692;8.948;2023-08-31T02:54:46;2.72;;;2.40;;
72273;SDS011;60208;48.692;8.948;2023-08-31T02:57:12;4.95;;;2.60;;
72273;SDS011;60208;48.692;8.948;2023-08-31T02:59:37;3.17;;;2.85;;
72273;SDS011;60208;48.692;8.948;2023-08-31T03:02:03;3.20;;;2.90;;
72273;SDS011;60208;48.692;8.948;2023-08-31T03:04:29;6.63;;;3.35;;
72273;SDS011;60208;48.692;8.948;2023-08-31T03:06:55;6.00;;;3.17;;
72273;SDS011;60208;48.692;8.948;2023-08-31T03:09:21;4.55;;;3.08;;
72273;SDS011;60208;48.692;8.948;2023-08-31T03:11:46;6.15;;;3.40;;
72273;SDS011;60208;48.692;8.948;2023-08-31T03:14:15;5.57;;;3.00;;
72273;SDS011;60208;48.692;8.948;2023-08-31T03:16:41;6.05;;;3.25;;
72273;SDS011;60208;48.692;8.948;2023-08-31T03:19:06;7.20;;;3.78;;
72273;SDS011;60208;48.692;8.948;2023-08-31T03:21:32;5.10;;;3.28;;
72273;SDS011;60208;48.692;8.948;2023-08-31T03:23:57;5.05;;;3.00;;
72273;SDS011;60208;48.692;8.948;2023-08-31T03:26:22;4.30;;;3.30;;
72273;SDS011;60208;48.692;8.948;2023-08-31T03:28:48;4.47;;;3.40;;
72273;SDS011;60208;48.692;8.948;2023-08-31T03:31:14;5.03;;;3.33;;
72273;SDS011;60208;48.692;8.948;2023-08-31T03:33:39;4.10;;;3.42;;
72273;SDS011;60208;48.692;8.948;2023-08-31T03:36:05;3.97;;;3.08;;
72273;SDS011;60208;48.692;8.948;2023-08-31T03:38:30;5.43;;;3.25;;
72273;SDS011;60208;48.692;8.948;2023-08-31T03:40:57;4.93;;;3.03;;
72273;SDS011;60208;48.692;8.948;2023-08-31T03:43:22;5.45;;;3.25;;
72273;SDS011;60208;48.692;8.948;2023-08-31T03:45:48;5.90;;;3.20;;
72273;SDS011;60208;48.692;8.948;2023-08-31T03:48:14;5.30;;;2.90;;
72273;SDS011;60208;48.692;8.948;2023-08-31T03:50:39;5.25;;;3.33;;
72273;SDS011;60208;48.692;8.948;2023-08-31T03:53:05;4.72;;;3.20;;
72273;SDS011;60208;48.692;8.948;2023-08-31T03:55:30;5.55;;;3.22;;
72273;SDS011;60208;48.692;8.948;2023-08-31T03:57:56;6.20;;;3.17;;
72273;SDS011;60208;48.692;8.948;2023-08-31T04:00:21;6.72;;;3.10;;
72273;SDS011;60208;48.692;8.948;2023-08-31T04:02:46;4.68;;;3.15;;
72273;SDS011;60208;48.692;8.948;2023-08-31T04:05:12;5.05;;;3.03;;
72273;SDS011;60208;48.692;8.948;2023-08-31T04:07:40;5.25;;;3.15;;
72273;SDS011;60208;48.692;8.948;2023-08-31T04:10:06;4.55;;;2.80;;
72273;SDS011;60208;48.692;8.948;2023-08-31T04:12:32;5.88;;;2.90;;
72273;SDS011;60208;48.692;8.948;2023-08-31T04:14:57;4.40;;;3.15;;
72273;SDS011;60208;48.692;8.948;2023-08-31T04:17:22;5.57;;;3.30;;
72273;SDS011;60208;48.692;8.948;2023-08-31T04:19:49;5.45;;;3.05;;
72273;SDS011;60208;48.692;8.948;2023-08-31T04:22:15;6.65;;;3.47;;
72273;SDS011;60208;48.692;8.948;2023-08-31T04:24:41;6.18;;;3.00;;
72273;SDS011;60208;48.692;8.948;2023-08-31T04:27:07;5.40;;;2.75;;
72273;SDS011;60208;48.692;8.948;2023-08-31T04:29:33;5.90;;;2.92;;
72273;SDS011;60208;48.692;8.948;2023-08-31T04:31:58;4.95;;;2.97;;
72273;SDS011;60208;48.692;8.948;2023-08-31T04:34:24;3.65;;;2.90;;
72273;SDS011;60208;48.692;8.948;2023-08-31T04:36:49;5.20;;;3.05;;
72273;SDS011;60208;48.692;8.948;2023-08-31T04:39:14;5.25;;;3.30;;
72273;SDS011;60208;48.692;8.948;2023-08-31T04:41:40;4.03;;;3.22;;
72273;SDS011;60208;48.692;8.948;2023-08-31T04:44:06;6.28;;;3.92;;
72273;SDS011;60208;48.692;8.948;2023-08-31T04:46:31;4.70;;;3.55;;
72273;SDS011;60208;48.692;8.948;2023-08-31T04:48:57;5.00;;;3.88;;
72273;SDS011;60208;48.692;8.948;2023-08-31T04:51:29;3.70;;;3.30;;
72273;SDS011;60208;48.692;8.948;2023-08-31T04:53:55;3.75;;;2.80;;
72273;SDS011;60208;48.692;8.948;2023-08-31T04:56:20;6.38;;;3.10;;
72273;SDS011;60208;48.692;8.948;2023-08-31T04:58:45;5.57;;;3.50;;
72273;SDS011;60208;48.692;8.948;2023-08-31T05:01:11;4.60;;;3.13;;
72273;SDS011;60208;48.692;8.948;2023-08-31T05:03:36;5.40;;;3.30;;
72273;SDS011;60208;48.692;8.948;2023-08-31T05:06:02;4.50;;;3.10;;
72273;SDS011;60208;48.692;8.948;2023-08-31T05:08:29;6.95;;;3.10;;
72273;SDS011;60208;48.692;8.948;2023-08-31T05:10:55;4.97;;;3.05;;
72273;SDS011;60208;48.692;8.948;2023-08-31T05:13:20;3.22;;;2.42;;
72273;SDS011;60208;48.692;8.948;2023-08-31T05:15:47;6.05;;;2.97;;
72273;SDS011;60208;48.692;8.948;2023-08-31T05:18:12;5.68;;;3.08;;
72273;SDS011;60208;48.692;8.948;2023-08-31T05:20:38;5.53;;;3.10;;
72273;SDS011;60208;48.692;8.948;2023-08-31T05:23:03;6.13;;;3.40;;
72273;SDS011;60208;48.692;8.948;2023-08-31T05:25:28;4.97;;;3.30;;
72273;SDS011;60208;48.692;8.948;2023-08-31T05:27:54;3.83;;;2.88;;
72273;SDS011;60208;48.692;8.948;2023-08-31T05:30:21;4.35;;;3.00;;
72273;SDS011;60208;48.692;8.948;2023-08-31T05:32:46;5.03;;;3.00;;
72273;SDS011;60208;48.692;8.948;2023-08-31T05:35:11;7.78;;;3.20;;
72273;SDS011;60208;48.692;8.948;2023-08-31T05:37:37;4.93;;;2.85;;
72273;SDS011;60208;48.692;8.948;2023-08-31T05:40:03;5.38;;;2.95;;
72273;SDS011;60208;48.692;8.948;2023-08-31T05:42:31;5.15;;;2.90;;
72273;SDS011;60208;48.692;8.948;2023-08-31T05:44:58;6.03;;;2.70;;
72273;SDS011;60208;48.692;8.948;2023-08-31T05:47:23;5.30;;;3.00;;
72273;SDS011;60208;48.692;8.948;2023-08-31T05:49:48;5.50;;;2.90;;
72273;SDS011;60208;48.692;8.948;2023-08-31T05:52:15;5.90;;;2.90;;
72273;SDS011;60208;48.692;8.948;2023-08-31T05:54:40;5.10;;;2.85;;
72273;SDS011;60208;48.692;8.948;2023-08-31T05:57:06;6.95;;;2.92;;
72273;SDS011;60208;48.692;8.948;2023-08-31T05:59:32;6.65;;;2.88;;
72273;SDS011;60208;48.692;8.948;2023-08-31T06:01:57;6.05;;;2.97;;
72273;SDS011;60208;48.692;8.948;2023-08-31T06:04:23;4.95;;;2.72;;
72273;SDS011;60208;48.692;8.948;2023-08-31T06:06:49;4.00;;;2.65;;
72273;SDS011;60208;48.692;8.948;2023-08-31T06:09:18;4.97;;;2.72;;
72273;SDS011;60208;48.692;8.948;2023-08-31T06:11:45;6.47;;;3.00;;
72273;SDS011;60208;48.692;8.948;2023-08-31T06:14:11;3.88;;;3.08;;
72273;SDS011;60208;48.692;8.948;2023-08-31T06:16:37;6.07;;;3.20;;
72273;SDS011;60208;48.692;8.948;2023-08-31T06:19:03;5.53;;;2.90;;
72273;SDS011;60208;48.692;8.948;2023-08-31T06:21:29;4.97;;;2.95;;
72273;SDS011;60208;48.692;8.948;2023-08-31T06:23:54;5.30;;;3.25;;
72273;SDS011;60208;48.692;8.948;2023-08-31T06:26:21;4.30;;;2.55;;
72273;SDS011;60208;48.692;8.948;2023-08-31T06:28:46;6.88;;;3.00;;
72273;SDS011;60208;48.692;8.948;2023-08-31T06:31:12;4.63;;;2.80;;
72273;SDS011;60208;48.692;8.948;2023-08-31T06:33:37;6.18;;;2.92;;
72273;SDS011;60208;48.692;8.948;2023-08-31T06:36:02;5.20;;;2.67;;
72273;SDS011;60208;48.692;8.948;2023-08-31T06:38:29;4.53;;;2.53;;
72273;SDS011;60208;48.692;8.948;2023-08-31T06:40:54;6.32;;;2.72;;
72273;SDS011;60208;48.692;8.948;2023-08-31T06:43:24;4.68;;;2.75;;
72273;SDS011;60208;48.692;8.948;2023-08-31T06:45:51;5.03;;;2.50;;
72273;SDS011;60208;48.692;8.948;2023-08-31T06:48:17;4.75;;;2.30;;
72273;SDS011;60208;48.692;8.948;2023-08-31T06:50:44;4.20;;;2.20;;
72273;SDS011;60208;48.692;8.948;2023-08-31T06:53:09;5.90;;;2.55;;
72273;SDS011;60208;48.692;8.948;2023-08-31T06:55:34;4.32;;;2.42;;
72273;SDS011;60208;48.692;8.948;2023-08-31T06:58:01;4.60;;;2.05;;
72273;SDS011;60208;48.692;8.948;2023-08-31T07:00:27;5.38;;;2.25;;
72273;SDS011;60208;48.692;8.948;2023-08-31T07:02:53;3.83;;;2.15;;
72273;SDS011;60208;48.692;8.948;2023-08-31T07:05:18;3.92;;;2.20;;
72273;SDS011;60208;48.692;8.948;2023-08-31T07:07:50;3.35;;;2.10;;
72273;SDS011;60208;48.692;8.948;2023-08-31T07:10:16;4.68;;;2.10;;
72273;SDS011;60208;48.692;8.948;2023-08-31T07:12:42;4.25;;;2.00;;
72273;SDS011;60208;48.692;8.948;2023-08-31T07:15:07;5.35;;;2.05;;
72273;SDS011;60208;48.692;8.948;2023-08-31T07:17:33;5.38;;;2.38;;
72273;SDS011;60208;48.692;8.948;2023-08-31T07:19:58;5.05;;;2.15;;
72273;SDS011;60208;48.692;8.948;2023-08-31T07:22:24;4.35;;;1.90;;
72273;SDS011;60208;48.692;8.948;2023-08-31T07:24:49;4.07;;;2.00;;
72273;SDS011;60208;48.692;8.948;2023-08-31T07:27:15;5.45;;;2.10;;
72273;SDS011;60208;48.692;8.948;2023-08-31T07:29:41;7.25;;;2.15;;
72273;SDS011;60208;48.692;8.948;2023-08-31T07:32:07;5.15;;;2.40;;
72273;SDS011;60208;48.692;8.948;2023-08-31T07:34:33;6.03;;;2.53;;
72273;SDS011;60208;48.692;8.948;2023-08-31T07:36:59;5.40;;;2.60;;
72273;SDS011;60208;48.692;8.948;2023-08-31T07:39:25;3.60;;;2.45;;
72273;SDS011;60208;48.692;8.948;2023-08-31T07:41:52;5.70;;;2.45;;
72273;SDS011;60208;48.692;8.948;2023-08-31T07:44:19;6.50;;;2.60;;
72273;SDS011;60208;48.692;8.948;2023-08-31T07:46:44;5.25;;;2.33;;
72273;SDS011;60208;48.692;8.948;2023-08-31T07:49:10;5.95;;;2.35;;
72273;SDS011;60208;48.692;8.948;2023-08-31T07:51:35;4.70;;;2.10;;
72273;SDS011;60208;48.692;8.948;2023-08-31T07:54:01;3.35;;;1.80;;
72273;SDS011;60208;48.692;8.948;2023-08-31T07:56:28;7.05;;;1.70;;
72273;SDS011;60208;48.692;8.948;2023-08-31T07:58:53;4.60;;;1.70;;
72273;SDS011;60208;48.692;8.948;2023-08-31T08:01:19;5.68;;;1.95;;
72273;SDS011;60208;48.692;8.948;2023-08-31T08:03:45;5.35;;;1.70;;
72273;SDS011;60208;48.692;8.948;2023-08-31T08:06:10;2.95;;;1.58;;
72273;SDS011;60208;48.692;8.948;2023-08-31T08:08:35;8.93;;;2.30;;
72273;SDS011;60208;48.692;8.948;2023-08-31T08:11:01;5.53;;;1.95;;
72273;SDS011;60208;48.692;8.948;2023-08-31T08:13:27;4.40;;;1.98;;
72273;SDS011;60208;48.692;8.948;2023-08-31T08:15:53;4.07;;;1.90;;
72273;SDS011;60208;48.692;8.948;2023-08-31T08:18:18;5.85;;;1.77;;
72273;SDS011;60208;48.692;8.948;2023-08-31T08:20:47;6.35;;;1.75;;
72273;SDS011;60208;48.692;8.948;2023-08-31T08:23:13;3.42;;;1.73;;
72273;SDS011;60208;48.692;8.948;2023-08-31T08:25:38;3.78;;;1.80;;
72273;SDS011;60208;48.692;8.948;2023-08-31T08:28:04;7.95;;;2.00;;
72273;SDS011;60208;48.692;8.948;2023-08-31T08:30:32;5.80;;;1.77;;
72273;SDS011;60208;48.692;8.948;2023-08-31T08:32:57;4.25;;;1.90;;
72273;SDS011;60208;48.692;8.948;2023-08-31T08:35:23;5.43;;;1.60;;
72273;SDS011;60208;48.692;8.948;2023-08-31T08:37:49;6.90;;;1.80;;
72273;SDS011;60208;48.692;8.948;2023-08-31T08:40:16;4.97;;;2.00;;
72273;SDS011;60208;48.692;8.948;2023-08-31T08:42:42;6.50;;;1.80;;
72273;SDS011;60208;48.692;8.948;2023-08-31T08:45:08;3.78;;;2.00;;
72273;SDS011;60208;48.692;8.948;2023-08-31T08:47:40;4.38;;;1.77;;
72273;SDS011;60208;48.692;8.948;2023-08-31T08:50:06;4.78;;;1.80;;
72273;SDS011;60208;48.692;8.948;2023-08-31T08:52:31;4.95;;;1.85;;
72273;SDS011;60208;48.692;8.948;2023-08-31T08:54:56;6.47;;;2.10;;
72273;SDS011;60208;48.692;8.948;2023-08-31T08:57:22;4.00;;;1.80;;
72273;SDS011;60208;48.692;8.948;2023-08-31T08:59:48;3.70;;;2.00;;
72273;SDS011;60208;48.692;8.948;2023-08-31T09:02:13;4.05;;;1.60;;
72273;SDS011;60208;48.692;8.948;2023-08-31T09:04:39;3.35;;;1.83;;
72273;SDS011;60208;48.692;8.948;2023-08-31T09:07:05;3.72;;;1.70;;
72273;SDS011;60208;48.692;8.948;2023-08-31T09:09:30;4.72;;;1.67;;
72273;SDS011;60208;48.692;8.948;2023-08-31T09:12:06;3.97;;;1.85;;
72273;SDS011;60208;48.692;8.948;2023-08-31T09:14:32;2.47;;;1.35;;
72273;SDS011;60208;48.692;8.948;2023-08-31T09:16:58;4.38;;;1.80;;
72273;SDS011;60208;48.692;8.948;2023-08-31T09:19:24;4.22;;;1.90;;
72273;SDS011;60208;48.692;8.948;2023-08-31T09:21:50;3.33;;;1.60;;
72273;SDS011;60208;48.692;8.948;2023-08-31T09:24:16;4.78;;;1.58;;
72273;SDS011;60208;48.692;8.948;2023-08-31T09:26:57;4.50;;;1.67;;
72273;SDS011;60208;48.692;8.948;2023-08-31T09:29:23;4.57;;;1.90;;
72273;SDS011;60208;48.692;8.948;2023-08-31T09:31:49;4.50;;;1.80;;
72273;SDS011;60208;48.692;8.948;2023-08-31T09:34:15;4.65;;;2.00;;
72273;SDS011;60208;48.692;8.948;2023-08-31T09:36:41;5.28;;;1.73;;
72273;SDS011;60208;48.692;8.948;2023-08-31T09:39:07;3.42;;;1.55;;
72273;SDS011;60208;48.692;8.948;2023-08-31T09:41:54;4.88;;;1.88;;
72273;SDS011;60208;48.692;8.948;2023-08-31T09:44:20;5.90;;;1.67;;
72273;SDS011;60208;48.692;8.948;2023-08-31T09:46:46;4.95;;;1.65;;
72273;SDS011;60208;48.692;8.948;2023-08-31T09:49:13;3.85;;;1.67;;
72273;SDS011;60208;48.692;8.948;2023-08-31T09:51:41;5.13;;;1.80;;
72273;SDS011;60208;48.692;8.948;2023-08-31T09:54:09;5.45;;;1.80;;
72273;SDS011;60208;48.692;8.948;2023-08-31T09:56:38;3.22;;;1.83;;
72273;SDS011;60208;48.692;8.948;2023-08-31T09:59:06;3.92;;;1.80;;
72273;SDS011;60208;48.692;8.948;2023-08-31T10:01:32;4.88;;;2.00;;
72273;SDS011;60208;48.692;8.948;2023-08-31T10:03:58;4.38;;;1.60;;
72273;SDS011;60208;48.692;8.948;2023-08-31T10:06:25;5.13;;;1.67;;
72273;SDS011;60208;48.692;8.948;2023-08-31T10:08:51;5.57;;;1.70;;
72273;SDS011;60208;48.692;8.948;2023-08-31T10:11:17;5.53;;;1.65;;
72273;SDS011;60208;48.692;8.948;2023-08-31T10:13:42;4.30;;;1.58;;
72273;SDS011;60208;48.692;8.948;2023-08-31T10:16:08;3.70;;;1.80;;
72273;SDS011;60208;48.692;8.948;2023-08-31T10:18:34;4.40;;;1.90;;
72273;SDS011;60208;48.692;8.948;2023-08-31T10:21:00;7.78;;;1.92;;
72273;SDS011;60208;48.692;8.948;2023-08-31T10:23:27;3.63;;;1.70;;
72273;SDS011;60208;48.692;8.948;2023-08-31T10:31:04;6.45;;;1.92;;
72273;SDS011;60208;48.692;8.948;2023-08-31T10:33:31;4.28;;;1.90;;
72273;SDS011;60208;48.692;8.948;2023-08-31T10:35:58;6.10;;;1.77;;
72273;SDS011;60208;48.692;8.948;2023-08-31T10:38:28;4.82;;;2.05;;
72273;SDS011;60208;48.692;8.948;2023-08-31T10:49:05;4.85;;;1.80;;
72273;SDS011;60208;48.692;8.948;2023-08-31T10:51:43;5.78;;;2.00;;
72273;SDS011;60208;48.692;8.948;2023-08-31T10:54:13;4.03;;;1.70;;
72273;SDS011;60208;48.692;8.948;2023-08-31T10:59:20;4.38;;;1.83;;
72273;SDS011;60208;48.692;8.948;2023-08-31T11:04:55;3.55;;;1.80;;
72273;SDS011;60208;48.692;8.948;2023-08-31T11:07:25;6.15;;;1.77;;
72273;SDS011;60208;48.692;8.948;2023-08-31T11:09:51;4.43;;;1.60;;
72273;SDS011;60208;48.692;8.948;2023-08-31T11:12:21;3.97;;;1.65;;
72273;SDS011;60208;48.692;8.948;2023-08-31T11:14:48;6.88;;;1.48;;
72273;SDS011;60208;48.692;8.948;2023-08-31T11:17:14;4.70;;;1.77;;
72273;SDS011;60208;48.692;8.948;2023-08-31T11:19:43;4.43;;;1.55;;
72273;SDS011;60208;48.692;8.948;2023-08-31T11:22:11;3.75;;;1.50;;
72273;SDS011;60208;48.692;8.948;2023-08-31T11:24:38;5.15;;;1.58;;
72273;SDS011;60208;48.692;8.948;2023-08-31T11:27:07;3.75;;;1.60;;
72273;SDS011;60208;48.692;8.948;2023-08-31T11:29:36;3.97;;;1.83;;
72273;SDS011;60208;48.692;8.948;2023-08-31T11:32:02;2.53;;;1.42;;
72273;SDS011;60208;48.692;8.948;2023-08-31T11:34:27;3.72;;;1.63;;
72273;SDS011;60208;48.692;8.948;2023-08-31T11:36:53;4.22;;;1.70;;
72273;SDS011;60208;48.692;8.948;2023-08-31T11:39:18;4.50;;;1.65;;
72273;SDS011;60208;48.692;8.948;2023-08-31T11:41:44;4.13;;;1.65;;
72273;SDS011;60208;48.692;8.948;2023-08-31T11:44:11;3.13;;;1.40;;
72273;SDS011;60208;48.692;8.948;2023-08-31T11:46:38;4.70;;;1.90;;
72273;SDS011;60208;48.692;8.948;2023-08-31T11:49:04;2.50;;;1.60;;
72273;SDS011;60208;48.692;8.948;2023-08-31T11:51:32;3.50;;;1.60;;
72273;SDS011;60208;48.692;8.948;2023-08-31T11:53:59;3.60;;;1.80;;
72273;SDS011;60208;48.692;8.948;2023-08-31T11:56:27;3.42;;;1.60;;
72273;SDS011;60208;48.692;8.948;2023-08-31T11:58:53;3.45;;;1.48;;
72273;SDS011;60208;48.692;8.948;2023-08-31T12:01:21;3.35;;;1.55;;
72273;SDS011;60208;48.692;8.948;2023-08-31T12:03:47;3.35;;;1.60;;
72273;SDS011;60208;48.692;8.948;2023-08-31T12:06:16;3.15;;;1.60;;
72273;SDS011;60208;48.692;8.948;2023-08-31T12:08:44;2.83;;;1.60;;
72273;SDS011;60208;48.692;8.948;2023-08-31T12:11:11;2.60;;;1.52;;
72273;SDS011;60208;48.692;8.948;2023-08-31T12:13:37;3.35;;;1.88;;
72273;SDS011;60208;48.692;8.948;2023-08-31T12:16:02;4.28;;;1.70;;
72273;SDS011;60208;48.692;8.948;2023-08-31T12:18:29;2.95;;;1.42;;
72273;SDS011;60208;48.692;8.948;2023-08-31T12:20:56;3.03;;;1.60;;
72273;SDS011;60208;48.692;8.948;2023-08-31T12:23:22;2.60;;;1.50;;
72273;SDS011;60208;48.692;8.948;2023-08-31T12:25:49;4.70;;;1.70;;
72273;SDS011;60208;48.692;8.948;2023-08-31T12:28:18;2.63;;;1.50;;
72273;SDS011;60208;48.692;8.948;2023-08-31T12:30:47;3.72;;;1.48;;
72273;SDS011;60208;48.692;8.948;2023-08-31T12:33:19;4.15;;;1.60;;
72273;SDS011;60208;48.692;8.948;2023-08-31T12:35:46;3.35;;;1.40;;
72273;SDS011;60208;48.692;8.948;2023-08-31T12:38:12;3.47;;;1.48;;
72273;SDS011;60208;48.692;8.948;2023-08-31T12:40:37;3.58;;;1.40;;
72273;SDS011;60208;48.692;8.948;2023-08-31T12:43:06;3.05;;;1.45;;
72273;SDS011;60208;48.692;8.948;2023-08-31T12:45:32;3.83;;;1.55;;
72273;SDS011;60208;48.692;8.948;2023-08-31T12:48:00;4.90;;;1.67;;
72273;SDS011;60208;48.692;8.948;2023-08-31T12:50:25;2.97;;;1.58;;
72273;SDS011;60208;48.692;8.948;2023-08-31T12:52:51;3.13;;;1.60;;
72273;SDS011;60208;48.692;8.948;2023-08-31T12:55:17;3.50;;;1.30;;
72273;SDS011;60208;48.692;8.948;2023-08-31T12:57:42;5.03;;;1.67;;
72273;SDS011;60208;48.692;8.948;2023-08-31T13:00:09;4.03;;;1.35;;
72273;SDS011;60208;48.692;8.948;2023-08-31T13:02:40;2.78;;;1.60;;
72273;SDS011;60208;48.692;8.948;2023-08-31T13:05:07;3.53;;;1.38;;
72273;SDS011;60208;48.692;8.948;2023-08-31T13:07:34;3.63;;;1.33;;
72273;SDS011;60208;48.692;8.948;2023-08-31T13:10:00;4.00;;;1.70;;
72273;SDS011;60208;48.692;8.948;2023-08-31T13:12:28;4.78;;;1.65;;
72273;SDS011;60208;48.692;8.948;2023-08-31T13:14:54;4.25;;;1.67;;
72273;SDS011;60208;48.692;8.948;2023-08-31T13:17:20;3.40;;;1.55;;
72273;SDS011;60208;48.692;8.948;2023-08-31T13:19:45;3.50;;;1.73;;
72273;SDS011;60208;48.692;8.948;2023-08-31T13:22:10;3.72;;;1.70;;
72273;SDS011;60208;48.692;8.948;2023-08-31T13:24:40;5.03;;;1.73;;
72273;SDS011;60208;48.692;8.948;2023-08-31T13:27:05;3.28;;;1.73;;
72273;SDS011;60208;48.692;8.948;2023-08-31T13:29:35;3.72;;;1.50;;
72273;SDS011;60208;48.692;8.948;2023-08-31T13:32:00;4.00;;;1.50;;
72273;SDS011;60208;48.692;8.948;2023-08-31T13:34:27;4.40;;;1.65;;
72273;SDS011;60208;48.692;8.948;2023-08-31T13:36:53;2.75;;;1.50;;
72273;SDS011;60208;48.692;8.948;2023-08-31T13:39:18;5.10;;;1.70;;
72273;SDS011;60208;48.692;8.948;2023-08-31T13:41:43;4.47;;;1.50;;
72273;SDS011;60208;48.692;8.948;2023-08-31T13:44:11;4.40;;;1.70;;
72273;SDS011;60208;48.692;8.948;2023-08-31T13:46:36;3.65;;;1.60;;
72273;SDS011;60208;48.692;8.948;2023-08-31T13:49:01;3.70;;;1.50;;
72273;SDS011;60208;48.692;8.948;2023-08-31T13:51:27;3.55;;;1.60;;
72273;SDS011;60208;48.692;8.948;2023-08-31T13:53:53;2.90;;;1.40;;
72273;SDS011;60208;48.692;8.948;2023-08-31T13:56:19;4.70;;;2.00;;
72273;SDS011;60208;48.692;8.948;2023-08-31T13:58:45;3.55;;;1.73;;
72273;SDS011;60208;48.692;8.948;2023-08-31T14:01:11;6.00;;;1.60;;
72273;SDS011;60208;48.692;8.948;2023-08-31T14:03:38;3.40;;;1.70;;
72273;SDS011;60208;48.692;8.948;2023-08-31T14:06:03;6.15;;;1.70;;
72273;SDS011;60208;48.692;8.948;2023-08-31T14:08:29;4.20;;;1.83;;
72273;SDS011;60208;48.692;8.948;2023-08-31T14:10:54;3.83;;;1.58;;
72273;SDS011;60208;48.692;8.948;2023-08-31T14:13:20;5.70;;;1.92;;
72273;SDS011;60208;48.692;8.948;2023-08-31T14:15:46;6.32;;;1.60;;
72273;SDS011;60208;48.692;8.948;2023-08-31T14:18:12;3.03;;;1.60;;
72273;SDS011;60208;48.692;8.948;2023-08-31T14:20:40;5.72;;;2.00;;
72273;SDS011;60208;48.692;8.948;2023-08-31T14:23:05;3.47;;;1.65;;
72273;SDS011;60208;48.692;8.948;2023-08-31T14:25:37;2.58;;;1.50;;
72273;SDS011;60208;48.692;8.948;2023-08-31T14:28:03;3.60;;;1.50;;
72273;SDS011;60208;48.692;8.948;2023-08-31T14:30:29;3.63;;;1.77;;
72273;SDS011;60208;48.692;8.948;2023-08-31T14:32:55;5.47;;;1.83;;
72273;SDS011;60208;48.692;8.948;2023-08-31T14:35:21;3.25;;;1.60;;
72273;SDS011;60208;48.692;8.948;2023-08-31T14:37:48;3.10;;;1.45;;
72273;SDS011;60208;48.692;8.948;2023-08-31T14:40:13;4.40;;;1.55;;
72273;SDS011;60208;48.692;8.948;2023-08-31T14:42:40;2.65;;;1.48;;
72273;SDS011;60208;48.692;8.948;2023-08-31T14:45:06;3.25;;;1.65;;
72273;SDS011;60208;48.692;8.948;2023-08-31T14:47:32;3.97;;;1.58;;
72273;SDS011;60208;48.692;8.948;2023-08-31T14:49:57;4.75;;;1.67;;
72273;SDS011;60208;48.692;8.948;2023-08-31T14:52:23;6.43;;;1.95;;
72273;SDS011;60208;48.692;8.948;2023-08-31T14:54:48;2.50;;;1.45;;
72273;SDS011;60208;48.692;8.948;2023-08-31T14:57:14;3.72;;;1.70;;
72273;SDS011;60208;48.692;8.948;2023-08-31T14:59:39;3.72;;;1.48;;
72273;SDS011;60208;48.692;8.948;2023-08-31T15:02:07;3.92;;;1.90;;
72273;SDS011;60208;48.692;8.948;2023-08-31T15:04:35;3.33;;;1.30;;
72273;SDS011;60208;48.692;8.948;2023-08-31T15:07:02;3.92;;;1.83;;
72273;SDS011;60208;48.692;8.948;2023-08-31T15:09:28;4.30;;;1.40;;
72273;SDS011;60208;48.692;8.948;2023-08-31T15:11:54;3.45;;;1.70;;
72273;SDS011;60208;48.692;8.948;2023-08-31T15:14:20;4.32;;;1.60;;
72273;SDS011;60208;48.692;8.948;2023-08-31T15:16:46;4.00;;;1.60;;
72273;SDS011;60208;48.692;8.948;2023-08-31T15:19:12;6.40;;;1.92;;